Time;durP1;ratioP1;P1;durP2;ratioP2;P2;SDS_P1;SDS_P2;PMS_P1;PMS_P2;Temp;Humidity;BMP_temperature;BMP_pressure;BME280_temperature;BME280_humidity;BME280_pressure;Samples;Min_cycle;Max_cycle;Signal;HPM_P1;HPM_P2
2023/12/19 00:00:28;;;;;;;4.47;4.07;;;;;;;20.15;46.72;98720.09;5008021;28;20210;-28
2023/12/19 00:02:55;;;;;;;4.27;3.90;;;;;;;20.14;46.77;98731.13;5010853;28;20248;-29
2023/12/19 00:05:22;;;;;;;4.00;3.70;;;;;;;20.13;46.55;98730.22;5011871;28;20198;-29
2023/12/19 00:07:48;;;;;;;4.10;3.70;;;;;;;20.14;46.81;98718.38;5010931;28;20630;-28
2023/12/19 00:10:15;;;;;;;4.30;3.90;;;;;;;20.14;46.57;98709.03;5010998;28;20198;-29
2023/12/19 00:12:42;;;;;;;4.33;3.93;;;;;;;20.15;46.81;98708.22;5012817;28;20249;-29
2023/12/19 00:15:09;;;;;;;4.30;3.90;;;;;;;20.15;46.65;98707.34;5011424;28;20229;-28
2023/12/19 00:17:36;;;;;;;4.47;4.10;;;;;;;20.14;46.83;98719.25;5006397;28;20250;-28
2023/12/19 00:20:02;;;;;;;4.50;4.17;;;;;;;20.15;46.69;98715.00;5011389;28;20211;-30
2023/12/19 00:22:29;;;;;;;4.00;3.70;;;;;;;20.13;46.76;98720.03;5006896;28;20245;-30
2023/12/19 00:24:56;;;;;;;3.93;3.63;;;;;;;20.12;47.01;98725.91;5015482;28;20190;-29
2023/12/19 00:27:23;;;;;;;4.70;4.30;;;;;;;20.14;46.71;98721.81;5015785;28;20237;-30
2023/12/19 00:29:49;;;;;;;4.30;3.90;;;;;;;20.13;46.64;98709.81;5014702;28;20661;-29
2023/12/19 00:32:16;;;;;;;4.17;3.87;;;;;;;20.13;46.97;98701.31;5012404;28;20202;-28
2023/12/19 00:34:42;;;;;;;4.17;3.87;;;;;;;20.12;46.75;98699.50;5007173;28;20316;-31
2023/12/19 00:37:09;;;;;;;4.13;3.73;;;;;;;20.14;46.71;98708.16;5014806;28;20221;-29
2023/12/19 00:39:36;;;;;;;3.97;3.67;;;;;;;20.04;47.08;98685.47;5014724;28;20207;-29
2023/12/19 00:42:03;;;;;;;4.07;3.77;;;;;;;20.13;46.69;98697.06;5015111;28;20207;-30
2023/12/19 00:44:30;;;;;;;4.40;3.80;;;;;;;20.13;46.76;98693.66;5010995;28;20721;-29
2023/12/19 00:46:56;;;;;;;3.70;3.37;;;;;;;20.13;46.78;98697.06;5015865;28;20221;-29
2023/12/19 00:49:23;;;;;;;3.83;3.53;;;;;;;20.12;46.92;98691.84;5011459;28;20231;-27
2023/12/19 00:51:50;;;;;;;3.67;3.37;;;;;;;20.14;46.97;98696.28;5028404;28;20202;-28
2023/12/19 00:54:16;;;;;;;4.13;3.83;;;;;;;20.15;46.73;98703.13;5014907;28;20277;-32
2023/12/19 00:56:43;;;;;;;3.90;3.57;;;;;;;20.12;46.77;98689.28;5015338;28;20258;-28
2023/12/19 00:59:10;;;;;;;3.77;3.47;;;;;;;20.15;46.95;98692.03;5013386;28;20236;-28
2023/12/19 01:01:36;;;;;;;3.80;3.50;;;;;;;20.15;46.79;98694.59;5014826;28;20198;-29
2023/12/19 01:04:04;;;;;;;3.80;3.50;;;;;;;20.12;46.87;98692.72;5014359;28;20217;-29
2023/12/19 01:06:31;;;;;;;4.60;4.20;;;;;;;20.16;46.73;98709.13;5013063;28;20221;-29
2023/12/19 01:08:58;;;;;;;3.77;3.47;;;;;;;20.15;46.88;98715.88;5012374;28;20222;-39
2023/12/19 01:11:25;;;;;;;3.90;3.50;;;;;;;20.15;46.66;98722.66;5005544;28;20195;-28
2023/12/19 01:13:51;;;;;;;3.70;3.40;;;;;;;20.15;46.21;98718.44;5015585;28;20226;-28
2023/12/19 01:16:18;;;;;;;3.20;3.00;;;;;;;20.15;46.67;98710.78;5015099;28;20312;-34
2023/12/19 01:18:44;;;;;;;3.73;3.43;;;;;;;20.16;46.72;98716.78;5011799;28;20659;-30
2023/12/19 01:21:11;;;;;;;4.00;3.70;;;;;;;20.16;46.79;98712.53;5006295;28;20217;-31
2023/12/19 01:23:38;;;;;;;3.83;3.53;;;;;;;20.16;46.67;98688.72;5012380;28;20199;-28
2023/12/19 01:26:04;;;;;;;3.53;3.23;;;;;;;20.16;46.74;98694.66;5019140;28;20230;-28
2023/12/19 01:28:41;;;;;;;3.93;3.63;;;;;;;20.18;46.65;98679.44;5013462;28;20202;-32
2023/12/19 01:31:07;;;;;;;3.47;3.17;;;;;;;20.19;46.65;98660.78;5006832;28;20199;-29
2023/12/19 01:33:34;;;;;;;4.77;3.57;;;;;;;20.17;46.70;98664.94;5012910;28;20711;-28
2023/12/19 01:36:02;;;;;;;3.50;3.20;;;;;;;20.18;46.62;98661.56;5014508;28;20249;-40
2023/12/19 01:38:28;;;;;;;3.87;3.57;;;;;;;20.18;46.66;98681.97;5010992;28;20203;-31
2023/12/19 01:40:55;;;;;;;3.73;3.43;;;;;;;20.18;46.48;98692.19;5014007;28;20234;-28
2023/12/19 01:43:22;;;;;;;4.07;3.77;;;;;;;20.19;46.60;98691.41;5008696;28;20560;-29
2023/12/19 01:45:52;;;;;;;4.37;3.97;;;;;;;20.19;46.62;98671.84;5014011;28;20473;-31
2023/12/19 01:48:19;;;;;;;3.53;3.23;;;;;;;20.18;46.73;98676.88;5018362;28;20202;-32
2023/12/19 01:50:46;;;;;;;3.70;3.40;;;;;;;20.19;46.64;98676.09;4996275;28;20596;-29
2023/12/19 01:53:13;;;;;;;3.93;3.63;;;;;;;20.20;46.56;98670.19;5013361;28;20293;-28
2023/12/19 01:55:40;;;;;;;3.93;3.63;;;;;;;20.20;46.44;98681.28;5013514;28;20594;-29
2023/12/19 01:58:07;;;;;;;3.70;3.40;;;;;;;20.19;46.47;98692.28;5012153;28;20206;-29
2023/12/19 02:00:35;;;;;;;3.60;3.30;;;;;;;20.19;46.69;98681.22;5002758;28;20563;-31
2023/12/19 02:03:01;;;;;;;3.40;3.20;;;;;;;20.17;46.80;98680.25;5012205;28;20202;-29
2023/12/19 02:05:28;;;;;;;3.70;3.40;;;;;;;20.17;46.49;98686.22;5011966;28;20190;-27
2023/12/19 02:07:55;;;;;;;3.20;3.00;;;;;;;20.15;46.71;98677.59;5011907;28;20210;-29
2023/12/19 02:10:23;;;;;;;3.00;2.80;;;;;;;20.17;46.62;98667.47;5011571;28;20328;-29
2023/12/19 02:12:50;;;;;;;3.60;3.30;;;;;;;20.18;46.85;98659.91;5013220;28;20678;-28
2023/12/19 02:15:16;;;;;;;3.87;3.57;;;;;;;20.17;46.57;98647.94;5011934;28;20221;-29
2023/12/19 02:17:43;;;;;;;3.80;3.50;;;;;;;20.16;46.61;98643.63;5006919;28;20273;-29
2023/12/19 02:20:10;;;;;;;3.73;3.43;;;;;;;20.16;46.66;98647.88;5012344;28;20198;-28
2023/12/19 02:22:37;;;;;;;3.23;3.00;;;;;;;20.16;46.70;98648.72;5013908;28;20205;-28
2023/12/19 02:25:04;;;;;;;3.73;3.30;;;;;;;20.16;46.61;98647.88;5013105;28;20199;-29
2023/12/19 02:27:30;;;;;;;3.40;3.20;;;;;;;20.11;46.52;98644.16;5009997;28;20226;-28
2023/12/19 02:29:57;;;;;;;4.10;3.70;;;;;;;20.05;46.63;98626.84;4995661;28;20693;-30
2023/12/19 02:32:23;;;;;;;3.43;3.13;;;;;;;20.15;46.68;98641.00;5011284;28;20202;-29
2023/12/19 02:34:50;;;;;;;3.23;2.93;;;;;;;20.14;46.67;98640.13;5013534;28;20226;-28
2023/12/19 02:37:17;;;;;;;3.73;3.43;;;;;;;20.08;46.39;98615.91;5012342;28;20638;-30
2023/12/19 02:39:43;;;;;;;3.27;3.07;;;;;;;20.14;46.42;98619.72;5011152;28;20230;-33
2023/12/19 02:42:10;;;;;;;3.47;3.17;;;;;;;20.15;46.55;98613.78;5010801;28;20663;-30
2023/12/19 02:44:37;;;;;;;3.37;3.10;;;;;;;20.15;46.45;98623.13;5012589;28;20199;-27
2023/12/19 02:47:03;;;;;;;3.50;3.20;;;;;;;20.14;46.41;98642.69;5015233;28;20221;-29
2023/12/19 02:49:30;;;;;;;3.63;3.33;;;;;;;20.15;46.50;98643.53;5012500;28;20206;-31
2023/12/19 02:51:58;;;;;;;3.50;3.20;;;;;;;20.15;46.80;98636.78;5012187;28;20585;-29
2023/12/19 02:54:24;;;;;;;3.40;3.10;;;;;;;20.15;46.60;98625.66;5009843;28;20748;-30
2023/12/19 02:56:51;;;;;;;3.73;3.30;;;;;;;20.14;46.59;98635.03;5003748;28;20219;-27
2023/12/19 02:59:18;;;;;;;3.60;3.30;;;;;;;20.15;46.40;98628.22;5011737;28;20625;-29
2023/12/19 03:01:50;;;;;;;3.40;3.13;;;;;;;20.14;46.47;98627.38;5010050;28;20238;-28
2023/12/19 03:04:16;;;;;;;3.07;2.87;;;;;;;20.15;46.48;98613.78;5010048;28;20673;-33
2023/12/19 03:06:44;;;;;;;2.87;2.67;;;;;;;20.13;46.57;98607.72;5012611;28;20636;-29
2023/12/19 03:09:11;;;;;;;3.30;3.10;;;;;;;20.14;46.74;98611.16;5012316;28;20626;-32
2023/12/19 03:11:38;;;;;;;3.57;3.27;;;;;;;20.14;46.69;98613.72;5012412;28;20202;-29
2023/12/19 03:14:04;;;;;;;3.30;3.00;;;;;;;20.14;46.86;98604.41;5012475;28;20260;-29
2023/12/19 03:16:32;;;;;;;3.30;3.10;;;;;;;20.14;46.62;98589.09;5012474;28;20257;-30
2023/12/19 03:18:58;;;;;;;3.27;2.97;;;;;;;20.14;46.65;98591.63;5008084;28;20694;-28
2023/12/19 03:21:25;;;;;;;3.20;3.00;;;;;;;20.14;46.63;98599.28;5003554;28;20609;-27
2023/12/19 03:23:51;;;;;;;3.30;3.00;;;;;;;20.15;46.68;98595.03;5009751;28;20296;-30
2023/12/19 03:26:18;;;;;;;3.60;3.40;;;;;;;20.04;46.51;98576.59;5011568;28;20582;-28
2023/12/19 03:28:45;;;;;;;3.60;3.30;;;;;;;19.90;46.62;98563.13;5011108;28;20198;-28
2023/12/19 03:31:12;;;;;;;3.40;3.10;;;;;;;20.14;46.66;98600.97;5002881;28;20199;-30
2023/12/19 03:33:39;;;;;;;2.80;2.60;;;;;;;20.13;46.47;98602.63;5009566;28;20198;-29
2023/12/19 03:36:06;;;;;;;3.30;3.07;;;;;;;20.14;46.60;98603.50;5011796;28;20213;-30
2023/12/19 03:38:33;;;;;;;3.57;3.27;;;;;;;20.14;46.57;98606.06;5012139;28;20676;-28
2023/12/19 03:41:00;;;;;;;3.40;3.10;;;;;;;20.14;46.63;98603.50;5012043;28;20202;-30
2023/12/19 03:43:26;;;;;;;3.70;3.40;;;;;;;20.14;46.58;98606.94;5011912;28;20194;-31
2023/12/19 03:45:57;;;;;;;3.53;3.23;;;;;;;20.14;46.69;98599.28;5011814;28;20341;-28
2023/12/19 03:48:24;;;;;;;3.07;2.87;;;;;;;20.14;46.59;98583.97;5010896;28;20207;-29
2023/12/19 03:50:50;;;;;;;3.20;3.00;;;;;;;20.14;46.60;98573.78;5011299;28;20203;-29
2023/12/19 03:53:17;;;;;;;3.43;3.23;;;;;;;20.13;46.05;98561.78;5012013;28;20581;-28
2023/12/19 03:55:44;;;;;;;3.30;3.10;;;;;;;20.15;46.59;98561.88;5011551;28;20226;-28
2023/12/19 03:58:10;;;;;;;3.47;3.20;;;;;;;20.15;46.58;98569.53;5014309;28;20206;-28
2023/12/19 04:00:37;;;;;;;2.97;2.77;;;;;;;20.16;46.48;98576.41;5015533;28;20694;-35
2023/12/19 04:03:04;;;;;;;2.90;2.70;;;;;;;20.14;46.47;98563.56;5015996;28;20217;-29
2023/12/19 04:05:30;;;;;;;3.27;3.07;;;;;;;20.15;46.40;98554.22;5016373;28;20230;-27
2023/12/19 04:07:57;;;;;;;3.60;3.30;;;;;;;20.14;46.63;98557.56;5015389;28;20297;-30
2023/12/19 04:10:23;;;;;;;3.00;2.80;;;;;;;20.12;46.73;98547.25;5018859;28;20202;-30
2023/12/19 04:12:50;;;;;;;3.57;3.27;;;;;;;20.13;46.56;98553.28;5015206;28;20206;-28
2023/12/19 04:15:17;;;;;;;3.10;2.90;;;;;;;20.09;46.79;98536.00;5010522;28;20591;-30
2023/12/19 04:17:43;;;;;;;2.93;2.73;;;;;;;20.13;46.64;98533.72;5015685;28;20700;-31
2023/12/19 04:20:11;;;;;;;3.30;3.00;;;;;;;20.14;46.63;98532.94;5012798;28;20202;-28
2023/12/19 04:22:38;;;;;;;2.97;2.77;;;;;;;20.13;46.76;98533.72;5008669;28;20681;-30
2023/12/19 04:25:05;;;;;;;3.00;2.80;;;;;;;20.14;46.73;98524.38;5013311;28;20629;-33
2023/12/19 04:27:32;;;;;;;3.17;2.97;;;;;;;20.14;46.58;98519.28;5014475;28;20712;-29
2023/12/19 04:29:59;;;;;;;3.10;2.90;;;;;;;20.14;46.60;98532.06;5015362;28;20202;-29
2023/12/19 04:32:25;;;;;;;3.13;2.93;;;;;;;20.14;46.66;98537.16;5013621;28;20233;-27
2023/12/19 04:34:52;;;;;;;3.20;2.90;;;;;;;20.13;46.67;98533.72;5015867;28;20291;-30
2023/12/19 04:37:19;;;;;;;3.07;2.87;;;;;;;20.13;46.69;98537.97;5015820;28;20250;-31
2023/12/19 04:39:45;;;;;;;3.00;2.80;;;;;;;20.14;46.60;98537.16;5015478;28;20199;-28
2023/12/19 04:42:17;;;;;;;3.20;3.00;;;;;;;20.14;46.50;98524.38;5013125;28;20299;-29
2023/12/19 04:44:46;;;;;;;3.10;2.90;;;;;;;20.13;46.74;98518.41;5006348;28;20190;-28
2023/12/19 04:47:13;;;;;;;2.93;2.73;;;;;;;20.14;46.58;98519.28;5015188;28;20718;-28
2023/12/19 04:49:40;;;;;;;3.13;2.93;;;;;;;20.13;46.60;98513.28;5013605;28;20245;-28
2023/12/19 04:52:06;;;;;;;3.23;3.03;;;;;;;20.13;46.87;98515.84;5014830;28;20202;-31
2023/12/19 04:54:33;;;;;;;3.57;3.27;;;;;;;20.14;46.16;98511.63;5015238;28;20222;-31
2023/12/19 04:57:00;;;;;;;2.90;2.70;;;;;;;20.14;46.58;98509.97;5014743;28;20264;-28
2023/12/19 04:59:26;;;;;;;3.10;2.90;;;;;;;20.14;46.32;98515.06;5015023;28;20202;-27
2023/12/19 05:01:53;;;;;;;3.00;2.80;;;;;;;20.16;46.64;98530.47;5011350;28;20213;-29
2023/12/19 05:04:20;;;;;;;3.20;2.90;;;;;;;20.14;46.56;98543.16;5005638;28;20212;-31
2023/12/19 05:06:46;;;;;;;2.73;2.53;;;;;;;20.13;46.64;98546.47;5010112;28;20233;-27
2023/12/19 05:09:13;;;;;;;2.80;2.60;;;;;;;20.13;46.70;98550.72;5008301;28;20264;-28
2023/12/19 05:11:44;;;;;;;3.23;3.03;;;;;;;20.12;45.87;98548.91;5015055;28;20576;-30
2023/12/19 05:14:11;;;;;;;3.40;3.10;;;;;;;20.14;45.82;98555.03;5014845;28;20624;-28
2023/12/19 05:16:37;;;;;;;3.50;3.20;;;;;;;20.14;46.06;98552.47;5013027;28;20217;-34
2023/12/19 05:19:04;;;;;;;3.20;3.00;;;;;;;20.14;46.33;98548.25;5007339;28;20260;-31
2023/12/19 05:21:40;;;;;;;3.23;2.97;;;;;;;20.14;46.22;98543.16;5008675;28;20222;-28
2023/12/19 05:24:09;;;;;;;3.10;2.90;;;;;;;20.16;46.09;98540.66;5020412;28;20653;-29
2023/12/19 05:26:35;;;;;;;3.13;2.93;;;;;;;20.15;46.07;98529.56;5014576;28;20214;-28
2023/12/19 05:29:02;;;;;;;3.27;2.97;;;;;;;20.16;46.06;98531.31;5010056;28;20207;-32
2023/12/19 05:31:29;;;;;;;2.70;2.50;;;;;;;20.17;46.22;98539.84;5015095;28;20198;-29
2023/12/19 05:33:56;;;;;;;3.33;3.03;;;;;;;20.17;45.96;98540.75;5015755;28;20737;-28
2023/12/19 05:36:22;;;;;;;18.90;3.30;;;;;;;20.18;46.09;98549.25;5011424;28;20235;-29
2023/12/19 05:38:49;;;;;;;3.40;3.10;;;;;;;20.08;46.02;98540.25;5006285;28;20626;-32
2023/12/19 05:41:16;;;;;;;3.20;3.00;;;;;;;20.19;46.30;98553.59;5013397;28;20202;-28
2023/12/19 05:43:43;;;;;;;3.40;3.10;;;;;;;20.19;46.29;98549.34;5013794;28;20202;-29
2023/12/19 05:46:10;;;;;;;3.33;3.03;;;;;;;20.19;46.36;98545.94;5014691;28;20218;-28
2023/12/19 05:48:37;;;;;;;3.20;3.00;;;;;;;20.20;46.42;98532.34;5022221;28;20194;-28
2023/12/19 05:51:04;;;;;;;3.47;3.20;;;;;;;20.19;46.31;98517.84;5013908;28;20735;-28
2023/12/19 05:53:31;;;;;;;3.07;2.87;;;;;;;20.22;46.62;98518.00;5013243;28;20253;-29
2023/12/19 05:55:58;;;;;;;3.73;2.97;;;;;;;20.24;46.56;98507.06;5013700;28;20232;-29
2023/12/19 05:58:24;;;;;;;3.53;3.23;;;;;;;20.23;46.73;98505.31;5013728;28;20730;-28
2023/12/19 06:00:51;;;;;;;3.10;2.90;;;;;;;20.23;46.52;98492.56;5014254;28;20215;-27
2023/12/19 06:03:18;;;;;;;5.20;3.13;;;;;;;20.24;46.73;98493.41;5011330;28;20202;-31
2023/12/19 06:05:44;;;;;;;3.47;3.17;;;;;;;20.23;46.24;98502.78;5011094;28;20762;-29
2023/12/19 06:08:11;;;;;;;3.80;3.43;;;;;;;20.26;46.41;98496.94;5002930;28;20202;-31
2023/12/19 06:10:38;;;;;;;3.30;3.00;;;;;;;20.25;46.53;98503.69;5008776;28;20245;-28
2023/12/19 06:13:05;;;;;;;3.60;3.30;;;;;;;20.27;46.50;98511.44;5014194;28;20202;-29
2023/12/19 06:15:32;;;;;;;3.40;3.10;;;;;;;20.26;46.68;98510.56;5005015;28;20598;-29
2023/12/19 06:17:58;;;;;;;3.10;2.83;;;;;;;20.25;46.74;98502.84;5011332;28;20202;-29
2023/12/19 06:20:25;;;;;;;3.07;2.80;;;;;;;20.26;46.64;98502.03;5011758;28;20225;-28
2023/12/19 06:22:51;;;;;;;3.30;3.00;;;;;;;20.27;46.64;98488.47;5012130;28;20610;-31
2023/12/19 06:25:18;;;;;;;3.40;3.10;;;;;;;20.27;46.73;98471.47;5013146;28;20195;-28
2023/12/19 06:27:45;;;;;;;3.53;3.23;;;;;;;20.28;46.67;98468.13;5013299;28;20264;-27
2023/12/19 06:30:12;;;;;;;3.43;3.03;;;;;;;20.28;46.72;98470.66;5013308;28;20289;-29
2023/12/19 06:32:53;;;;;;;3.30;3.10;;;;;;;20.28;46.70;98451.94;5013009;28;20621;-27
2023/12/19 06:35:19;;;;;;;3.20;2.90;;;;;;;20.28;46.80;98447.69;5012137;28;20219;-38
2023/12/19 06:37:46;;;;;;;4.40;4.00;;;;;;;20.29;44.05;98438.38;5011738;28;20265;-31
2023/12/19 06:40:13;;;;;;;5.83;5.27;;;;;;;20.29;41.29;98446.91;5013596;28;20780;-30
2023/12/19 06:42:40;;;;;;;7.00;6.30;;;;;;;20.23;39.39;98459.38;5011506;28;20276;-30
2023/12/19 06:45:07;;;;;;;7.77;6.90;;;;;;;20.22;38.00;98474.63;5013507;28;20194;-28
2023/12/19 06:47:35;;;;;;;7.50;6.77;;;;;;;20.19;37.74;98467.66;5005618;28;20217;-29
2023/12/19 06:50:03;;;;;;;8.37;7.37;;;;;;;20.19;37.07;98464.25;5013084;28;20676;-28
2023/12/19 06:52:30;;;;;;;8.47;7.67;;;;;;;20.17;36.46;98465.84;5011443;28;20194;-31
2023/12/19 06:54:57;;;;;;;8.60;7.60;;;;;;;20.04;35.86;98427.75;5013306;28;20576;-29
2023/12/19 06:57:24;;;;;;;8.20;7.33;;;;;;;20.11;35.49;98442.53;5013303;28;20221;-28
2023/12/19 06:59:51;;;;;;;9.87;7.53;;;;;;;20.08;35.38;98447.50;5013490;28;20206;-28
2023/12/19 07:02:18;;;;;;;8.53;7.73;;;;;;;20.05;34.83;98455.00;5009403;28;20249;-34
2023/12/19 07:04:44;;;;;;;8.43;7.63;;;;;;;20.02;35.20;98461.69;5012688;28;20202;-30
2023/12/19 07:07:12;;;;;;;8.67;7.87;;;;;;;20.02;36.91;98460.84;5012496;28;20237;-27
2023/12/19 07:09:38;;;;;;;8.40;7.60;;;;;;;20.01;37.94;98466.72;5012820;28;20201;-33
2023/12/19 07:12:05;;;;;;;8.07;7.23;;;;;;;20.01;38.54;98464.16;5011015;28;20210;-30
2023/12/19 07:14:32;;;;;;;7.30;6.63;;;;;;;20.01;39.55;98464.16;5009893;28;20228;-29
2023/12/19 07:16:58;;;;;;;7.77;6.97;;;;;;;20.03;40.10;98465.13;5012794;28;20222;-27
2023/12/19 07:19:25;;;;;;;7.57;6.87;;;;;;;19.93;40.72;98442.50;5012941;28;20558;-33
2023/12/19 07:21:51;;;;;;;6.93;6.33;;;;;;;20.06;40.79;98461.84;5013141;28;20265;-28
2023/12/19 07:24:19;;;;;;;7.83;7.07;;;;;;;20.06;38.13;98461.84;5012963;28;20206;-28
2023/12/19 07:26:46;;;;;;;7.33;6.63;;;;;;;20.03;38.23;98460.03;5012245;28;20276;-29
2023/12/19 07:29:12;;;;;;;7.57;6.83;;;;;;;20.02;39.25;98442.97;5010314;28;20613;-29
2023/12/19 07:31:39;;;;;;;7.30;6.60;;;;;;;20.02;40.08;98449.75;5011909;28;20208;-28
2023/12/19 07:34:07;;;;;;;7.13;6.33;;;;;;;20.02;40.46;98458.28;5012322;28;20277;-29
2023/12/19 07:36:34;;;;;;;7.60;6.80;;;;;;;20.02;38.75;98450.63;5012188;28;20233;-29
2023/12/19 07:39:01;;;;;;;7.80;7.10;;;;;;;20.04;38.85;98435.41;5004507;28;20209;-28
2023/12/19 07:41:28;;;;;;;7.77;6.97;;;;;;;20.02;39.70;98433.63;5012773;28;20210;-30
2023/12/19 07:43:54;;;;;;;7.23;6.53;;;;;;;20.03;40.41;98447.25;5012471;28;20681;-29
2023/12/19 07:46:21;;;;;;;7.00;6.30;;;;;;;20.05;41.25;98458.44;5012450;28;20218;-29
2023/12/19 07:48:48;;;;;;;10.10;8.60;;;;;;;20.02;36.21;98451.47;5013479;28;20674;-28
2023/12/19 07:51:20;;;;;;;10.27;9.20;;;;;;;19.98;35.29;98453.81;5012841;28;20209;-29
2023/12/19 07:53:47;;;;;;;9.93;8.83;;;;;;;19.97;36.69;98454.63;5011774;28;20213;-31
2023/12/19 07:56:13;;;;;;;9.73;8.73;;;;;;;19.96;37.80;98448.63;5011746;28;20305;-28
2023/12/19 07:58:40;;;;;;;9.20;8.30;;;;;;;19.96;38.64;98446.06;5011301;28;20229;-29
2023/12/19 08:01:10;;;;;;;8.93;7.83;;;;;;;19.95;39.28;98444.34;5011923;28;20198;-29
2023/12/19 08:03:37;;;;;;;9.23;7.80;;;;;;;19.95;40.02;98435.78;5012387;28;20277;-34
2023/12/19 08:06:03;;;;;;;8.87;7.97;;;;;;;19.95;40.53;98453.66;5011415;28;20687;-28
2023/12/19 08:08:30;;;;;;;8.53;7.53;;;;;;;19.96;41.00;98450.31;5011957;28;20264;-28
2023/12/19 08:10:57;;;;;;;8.67;7.30;;;;;;;19.96;41.40;98445.22;5012625;28;20518;-28
2023/12/19 08:13:24;;;;;;;7.97;7.17;;;;;;;19.94;40.83;98434.94;5012002;28;20202;-28
2023/12/19 08:15:53;;;;;;;8.57;7.50;;;;;;;19.96;41.62;98435.88;5011361;28;20514;-28
2023/12/19 08:18:20;;;;;;;8.47;7.50;;;;;;;19.96;41.79;98440.13;5003373;28;20202;-29
2023/12/19 08:20:47;;;;;;;7.70;6.73;;;;;;;19.96;41.83;98432.47;5007048;28;20205;-30
2023/12/19 08:23:13;;;;;;;7.77;6.90;;;;;;;19.96;42.13;98433.31;5009803;28;20723;-29
2023/12/19 08:25:41;;;;;;;7.60;6.90;;;;;;;19.98;42.46;98435.94;5010111;28;20284;-30
2023/12/19 08:28:08;;;;;;;7.43;6.73;;;;;;;19.98;42.72;98433.38;5004122;28;20209;-29
2023/12/19 08:30:35;;;;;;;7.20;6.50;;;;;;;19.99;42.77;98432.63;5010830;28;20760;-29
2023/12/19 08:33:02;;;;;;;7.20;6.50;;;;;;;19.98;43.05;98436.84;5003603;28;20229;-29
2023/12/19 08:35:30;;;;;;;7.43;6.70;;;;;;;19.99;43.22;98441.13;5011224;28;20234;-29
2023/12/19 08:37:56;;;;;;;7.53;6.70;;;;;;;19.99;43.10;98447.94;5007380;28;20202;-29
2023/12/19 08:40:23;;;;;;;7.10;6.40;;;;;;;20.01;43.12;98437.78;4997791;28;20210;-28
2023/12/19 08:42:49;;;;;;;6.97;6.27;;;;;;;20.01;43.10;98435.25;5011611;28;20664;-30
2023/12/19 08:45:22;;;;;;;7.03;6.33;;;;;;;20.02;43.41;98437.88;5015322;28;20209;-28
2023/12/19 08:47:49;;;;;;;6.93;6.33;;;;;;;20.03;43.71;98437.06;5014147;28;20234;-29
2023/12/19 08:50:17;;;;;;;8.20;6.13;;;;;;;20.03;43.46;98431.94;5014510;28;20205;-29
2023/12/19 08:52:44;;;;;;;7.93;6.43;;;;;;;20.04;43.99;98414.97;5012903;28;20281;-29
2023/12/19 08:55:11;;;;;;;7.40;6.43;;;;;;;20.04;43.79;98426.03;5014419;28;20293;-29
2023/12/19 08:57:39;;;;;;;6.60;5.83;;;;;;;20.05;43.63;98419.28;5011499;28;20764;-29
2023/12/19 09:00:08;;;;;;;6.37;5.80;;;;;;;20.05;43.85;98409.94;5013455;28;20691;-28
2023/12/19 09:02:34;;;;;;;6.37;5.80;;;;;;;20.07;43.86;98412.56;5014094;28;20206;-29
2023/12/19 09:05:01;;;;;;;7.27;6.27;;;;;;;20.06;43.90;98416.78;5014266;28;20260;-29
2023/12/19 09:07:27;;;;;;;6.30;5.70;;;;;;;20.08;44.05;98424.53;5014066;28;20308;-30
2023/12/19 09:09:55;;;;;;;7.20;6.10;;;;;;;20.07;44.09;98418.53;5013009;28;20202;-28
2023/12/19 09:12:22;;;;;;;6.37;5.77;;;;;;;20.10;44.06;98428.03;5014434;28;20213;-29
2023/12/19 09:14:49;;;;;;;6.30;5.70;;;;;;;20.09;44.02;98431.38;5013592;28;20206;-30
2023/12/19 09:17:15;;;;;;;6.00;5.23;;;;;;;20.07;44.26;98413.44;5014163;28;20218;-30
2023/12/19 09:19:42;;;;;;;6.20;5.60;;;;;;;20.07;44.11;98415.13;5013806;28;20194;-30
2023/12/19 09:22:09;;;;;;;6.43;5.83;;;;;;;20.08;43.99;98406.66;5009735;28;20285;-29
2023/12/19 09:24:36;;;;;;;6.23;5.63;;;;;;;20.08;43.96;98411.75;5011351;28;20285;-29
2023/12/19 09:27:03;;;;;;;6.27;5.67;;;;;;;20.08;44.09;98401.56;5013713;28;20712;-28
2023/12/19 09:29:29;;;;;;;6.07;5.50;;;;;;;20.09;44.01;98393.97;5006493;28;20211;-28
2023/12/19 09:31:56;;;;;;;6.33;5.73;;;;;;;20.09;44.28;98385.44;5003110;28;20237;-29
2023/12/19 09:34:23;;;;;;;5.87;5.37;;;;;;;20.09;44.50;98388.00;5013562;28;20296;-29
2023/12/19 09:36:49;;;;;;;6.47;5.83;;;;;;;20.09;44.28;98390.53;5013323;28;20637;-29
2023/12/19 09:39:23;;;;;;;6.13;5.60;;;;;;;20.11;44.52;98386.41;5006690;28;20665;-29
2023/12/19 09:41:50;;;;;;;7.40;5.40;;;;;;;20.10;44.59;98377.84;5013256;28;20209;-30
2023/12/19 09:44:17;;;;;;;6.43;5.73;;;;;;;20.08;44.62;98371.81;5005146;28;20660;-29
2023/12/19 09:46:52;;;;;;;5.87;5.27;;;;;;;20.08;44.56;98369.28;5016545;28;20699;-29
2023/12/19 09:49:23;;;;;;;7.10;5.33;;;;;;;20.11;44.79;98373.63;5013347;28;20202;-30
2023/12/19 09:51:55;;;;;;;6.07;5.47;;;;;;;20.11;44.68;98365.97;5009673;28;20217;-29
2023/12/19 09:54:22;;;;;;;6.43;5.63;;;;;;;20.11;44.59;98371.09;5011984;28;20198;-29
2023/12/19 09:56:50;;;;;;;5.80;5.30;;;;;;;20.11;44.82;98364.31;5013436;28;20672;-29
2023/12/19 09:59:17;;;;;;;6.33;5.40;;;;;;;20.10;44.80;98370.19;5011087;28;20202;-29
2023/12/19 10:01:47;;;;;;;5.43;4.97;;;;;;;20.11;44.78;98343.00;5006834;28;20230;-29
2023/12/19 10:04:16;;;;;;;5.47;4.97;;;;;;;20.12;44.80;98332.00;5009635;28;20599;-28
2023/12/19 10:06:55;;;;;;;5.80;5.20;;;;;;;20.14;44.78;98333.88;5008573;28;20214;-29
2023/12/19 10:09:22;;;;;;;5.63;5.13;;;;;;;20.13;44.95;98334.66;5010235;28;20202;-29
2023/12/19 10:12:06;;;;;;;6.40;5.77;;;;;;;20.14;44.81;98326.22;5013139;28;20225;-29
2023/12/19 10:14:35;;;;;;;5.57;5.07;;;;;;;20.13;44.76;98314.22;4995194;28;20248;-30
2023/12/19 10:17:04;;;;;;;5.33;4.83;;;;;;;20.14;44.83;98303.25;5012793;28;20237;-29
2023/12/19 10:19:30;;;;;;;5.57;4.87;;;;;;;20.13;44.84;98292.97;5010265;28;20198;-29
2023/12/19 10:22:06;;;;;;;6.03;5.43;;;;;;;20.14;44.84;98299.81;5010471;28;20308;-29
2023/12/19 10:24:33;;;;;;;5.47;4.97;;;;;;;20.13;44.89;98275.94;5004151;28;20292;-29
2023/12/19 10:27:00;;;;;;;5.33;4.83;;;;;;;20.14;44.68;98257.31;5004616;28;20783;-29
2023/12/19 10:29:34;;;;;;;5.43;4.93;;;;;;;20.12;44.77;98257.97;5002949;28;20567;-29
2023/12/19 10:32:14;;;;;;;5.80;5.20;;;;;;;20.16;44.96;98250.56;5011902;28;20257;-28
2023/12/19 10:34:41;;;;;;;5.40;4.90;;;;;;;20.14;45.07;98238.56;5012477;28;20253;-29
2023/12/19 10:37:12;;;;;;;5.70;5.20;;;;;;;20.14;44.93;98238.56;5010686;28;20233;-29
2023/12/19 10:39:42;;;;;;;5.60;5.10;;;;;;;20.14;45.18;98234.34;5009703;28;20234;-29
2023/12/19 10:42:09;;;;;;;5.47;4.90;;;;;;;20.15;45.15;98235.19;5012273;28;20241;-29
2023/12/19 10:44:39;;;;;;;5.20;4.80;;;;;;;20.05;45.17;98228.78;5012941;28;20199;-29
2023/12/19 10:47:10;;;;;;;5.47;4.97;;;;;;;20.14;45.16;98230.91;5010791;28;20220;-30
2023/12/19 10:49:37;;;;;;;5.70;5.20;;;;;;;20.12;45.07;98228.25;5012431;28;20202;-29
2023/12/19 10:52:10;;;;;;;5.20;4.73;;;;;;;20.10;45.47;98229.00;5012162;28;20316;-29
2023/12/19 10:54:39;;;;;;;5.17;4.67;;;;;;;20.12;45.27;98212.94;4976586;28;20301;-28
2023/12/19 10:57:16;;;;;;;5.20;4.70;;;;;;;20.13;45.20;98208.75;5008725;28;20233;-28
2023/12/19 10:59:49;;;;;;;5.33;4.57;;;;;;;20.14;45.27;98197.72;5004205;28;20715;-29
2023/12/19 11:02:25;;;;;;;4.90;4.50;;;;;;;20.14;45.25;98197.72;5007773;28;20245;-29
2023/12/19 11:05:00;;;;;;;5.30;4.80;;;;;;;20.14;45.18;98197.72;5011830;28;20205;-29
2023/12/19 11:07:27;;;;;;;5.03;4.63;;;;;;;20.11;45.39;98185.69;5004067;28;20257;-28
2023/12/19 11:09:57;;;;;;;4.77;4.37;;;;;;;20.14;45.30;98190.06;5010774;28;20297;-29
2023/12/19 11:12:24;;;;;;;5.23;4.77;;;;;;;20.12;45.28;98174.66;5003322;28;20198;-29
2023/12/19 11:14:50;;;;;;;5.47;4.97;;;;;;;20.15;45.19;98187.59;4991103;28;20235;-28
2023/12/19 11:17:20;;;;;;;4.83;4.43;;;;;;;20.15;45.23;98168.84;5011054;28;20280;-30
2023/12/19 11:19:59;;;;;;;4.83;4.43;;;;;;;20.14;45.13;98168.00;5010455;28;20213;-27
2023/12/19 11:22:44;;;;;;;4.97;4.57;;;;;;;20.15;45.03;98162.06;5001469;28;20285;-30
2023/12/19 11:25:33;;;;;;;5.97;4.73;;;;;;;20.17;45.04;98167.25;5010882;28;20282;-29
2023/12/19 11:28:01;;;;;;;6.10;5.47;;;;;;;20.18;45.06;98169.88;5010588;28;20310;-29
2023/12/19 11:30:39;;;;;;;5.27;4.77;;;;;;;20.17;45.29;98163.03;4990924;28;20636;-29
2023/12/19 11:33:13;;;;;;;4.73;4.33;;;;;;;20.16;45.37;98161.25;5009632;28;20244;-28
2023/12/19 11:35:40;;;;;;;5.13;4.63;;;;;;;20.16;45.45;98158.69;5006076;28;20218;-29